sensor_id;sensor_type;location;lat;lon;timestamp;pressure;altitude;pressure_sealevel;temperature
10058;BMP180;5068;51.286;7.518;2023-07-20T00:01:11;99185.00;;;19.90
10058;BMP180;5068;51.286;7.518;2023-07-20T00:02:44;99181.00;;;19.80
10058;BMP180;5068;51.286;7.518;2023-07-20T00:04:18;99180.00;;;19.80
10058;BMP180;5068;51.286;7.518;2023-07-20T00:05:51;99186.00;;;19.80
10058;BMP180;5068;51.286;7.518;2023-07-20T00:07:25;99180.00;;;19.80
10058;BMP180;5068;51.286;7.518;2023-07-20T00:08:57;99181.00;;;19.70
10058;BMP180;5068;51.286;7.518;2023-07-20T00:10:31;99182.00;;;19.70
10058;BMP180;5068;51.286;7.518;2023-07-20T00:12:05;99179.00;;;19.70
10058;BMP180;5068;51.286;7.518;2023-07-20T00:13:38;99183.00;;;19.70
10058;BMP180;5068;51.286;7.518;2023-07-20T00:15:10;99170.00;;;19.70
10058;BMP180;5068;51.286;7.518;2023-07-20T00:16:44;99178.00;;;19.70
10058;BMP180;5068;51.286;7.518;2023-07-20T00:18:18;99178.00;;;19.70
10058;BMP180;5068;51.286;7.518;2023-07-20T00:19:54;99184.00;;;19.60
10058;BMP180;5068;51.286;7.518;2023-07-20T00:21:26;99176.00;;;19.60
10058;BMP180;5068;51.286;7.518;2023-07-20T00:23:00;99178.00;;;19.60
10058;BMP180;5068;51.286;7.518;2023-07-20T00:24:32;99181.00;;;19.60
10058;BMP180;5068;51.286;7.518;2023-07-20T00:26:05;99176.00;;;19.60
10058;BMP180;5068;51.286;7.518;2023-07-20T00:27:37;99179.00;;;19.60
10058;BMP180;5068;51.286;7.518;2023-07-20T00:29:11;99173.00;;;19.50
10058;BMP180;5068;51.286;7.518;2023-07-20T00:30:45;99177.00;;;19.50
10058;BMP180;5068;51.286;7.518;2023-07-20T00:32:17;99173.00;;;19.50
10058;BMP180;5068;51.286;7.518;2023-07-20T00:33:50;99170.00;;;19.50
10058;BMP180;5068;51.286;7.518;2023-07-20T00:35:25;99174.00;;;19.50
10058;BMP180;5068;51.286;7.518;2023-07-20T00:36:58;99175.00;;;19.50
10058;BMP180;5068;51.286;7.518;2023-07-20T00:38:30;99163.00;;;19.50
10058;BMP180;5068;51.286;7.518;2023-07-20T00:40:05;99170.00;;;19.50
10058;BMP180;5068;51.286;7.518;2023-07-20T00:41:39;99161.00;;;19.50
10058;BMP180;5068;51.286;7.518;2023-07-20T00:43:12;99166.00;;;19.40
10058;BMP180;5068;51.286;7.518;2023-07-20T00:44:44;99163.00;;;19.40
10058;BMP180;5068;51.286;7.518;2023-07-20T00:46:18;99161.00;;;19.40
10058;BMP180;5068;51.286;7.518;2023-07-20T00:47:50;99160.00;;;19.40
10058;BMP180;5068;51.286;7.518;2023-07-20T00:49:24;99161.00;;;19.30
10058;BMP180;5068;51.286;7.518;2023-07-20T00:51:00;99159.00;;;19.30
10058;BMP180;5068;51.286;7.518;2023-07-20T00:52:34;99152.00;;;19.30
10058;BMP180;5068;51.286;7.518;2023-07-20T00:54:08;99166.00;;;19.20
10058;BMP180;5068;51.286;7.518;2023-07-20T00:55:42;99166.00;;;19.20
10058;BMP180;5068;51.286;7.518;2023-07-20T00:57:15;99164.00;;;19.20
10058;BMP180;5068;51.286;7.518;2023-07-20T00:58:48;99166.00;;;19.20
10058;BMP180;5068;51.286;7.518;2023-07-20T01:00:22;99176.00;;;19.20
10058;BMP180;5068;51.286;7.518;2023-07-20T01:01:55;99167.00;;;19.20
10058;BMP180;5068;51.286;7.518;2023-07-20T01:03:29;99169.00;;;19.10
10058;BMP180;5068;51.286;7.518;2023-07-20T01:05:01;99171.00;;;19.10
10058;BMP180;5068;51.286;7.518;2023-07-20T01:06:49;99167.00;;;19.10
10058;BMP180;5068;51.286;7.518;2023-07-20T01:08:38;99168.00;;;19.10
10058;BMP180;5068;51.286;7.518;2023-07-20T01:10:22;99168.00;;;19.00
10058;BMP180;5068;51.286;7.518;2023-07-20T01:12:04;99170.00;;;18.90
10058;BMP180;5068;51.286;7.518;2023-07-20T01:13:39;99169.00;;;18.90
10058;BMP180;5068;51.286;7.518;2023-07-20T01:15:11;99174.00;;;18.80
10058;BMP180;5068;51.286;7.518;2023-07-20T01:16:44;99173.00;;;18.80
10058;BMP180;5068;51.286;7.518;2023-07-20T01:18:18;99174.00;;;18.70
10058;BMP180;5068;51.286;7.518;2023-07-20T01:19:51;99175.00;;;18.70
10058;BMP180;5068;51.286;7.518;2023-07-20T01:21:32;99171.00;;;18.70
10058;BMP180;5068;51.286;7.518;2023-07-20T01:23:32;99170.00;;;18.60
10058;BMP180;5068;51.286;7.518;2023-07-20T01:25:32;99171.00;;;18.60
10058;BMP180;5068;51.286;7.518;2023-07-20T01:27:41;99165.00;;;18.50
10058;BMP180;5068;51.286;7.518;2023-07-20T01:29:52;99161.00;;;18.50
10058;BMP180;5068;51.286;7.518;2023-07-20T01:31:32;99163.00;;;18.50
10058;BMP180;5068;51.286;7.518;2023-07-20T01:33:08;99162.00;;;18.50
10058;BMP180;5068;51.286;7.518;2023-07-20T01:34:41;99154.00;;;18.50
10058;BMP180;5068;51.286;7.518;2023-07-20T01:36:18;99164.00;;;18.40
10058;BMP180;5068;51.286;7.518;2023-07-20T01:37:51;99168.00;;;18.40
10058;BMP180;5068;51.286;7.518;2023-07-20T01:39:26;99162.00;;;18.40
10058;BMP180;5068;51.286;7.518;2023-07-20T01:40:59;99164.00;;;18.40
10058;BMP180;5068;51.286;7.518;2023-07-20T01:42:32;99162.00;;;18.30
10058;BMP180;5068;51.286;7.518;2023-07-20T01:44:05;99160.00;;;18.30
10058;BMP180;5068;51.286;7.518;2023-07-20T01:45:38;99158.00;;;18.30
10058;BMP180;5068;51.286;7.518;2023-07-20T01:47:12;99158.00;;;18.20
10058;BMP180;5068;51.286;7.518;2023-07-20T01:48:47;99155.00;;;18.20
10058;BMP180;5068;51.286;7.518;2023-07-20T01:50:19;99149.00;;;18.10
10058;BMP180;5068;51.286;7.518;2023-07-20T01:51:52;99149.00;;;18.10
10058;BMP180;5068;51.286;7.518;2023-07-20T01:53:25;99152.00;;;18.10
10058;BMP180;5068;51.286;7.518;2023-07-20T01:54:58;99151.00;;;18.00
10058;BMP180;5068;51.286;7.518;2023-07-20T01:56:30;99152.00;;;18.00
10058;BMP180;5068;51.286;7.518;2023-07-20T01:58:03;99155.00;;;18.00
10058;BMP180;5068;51.286;7.518;2023-07-20T01:59:36;99155.00;;;17.90
10058;BMP180;5068;51.286;7.518;2023-07-20T02:01:09;99161.00;;;17.90
10058;BMP180;5068;51.286;7.518;2023-07-20T02:02:43;99158.00;;;17.90
10058;BMP180;5068;51.286;7.518;2023-07-20T02:04:16;99161.00;;;17.80
10058;BMP180;5068;51.286;7.518;2023-07-20T02:05:48;99149.00;;;17.80
10058;BMP180;5068;51.286;7.518;2023-07-20T02:07:22;99144.00;;;17.70
10058;BMP180;5068;51.286;7.518;2023-07-20T02:08:55;99137.00;;;17.60
10058;BMP180;5068;51.286;7.518;2023-07-20T02:10:28;99145.00;;;17.60
10058;BMP180;5068;51.286;7.518;2023-07-20T02:12:00;99147.00;;;17.60
10058;BMP180;5068;51.286;7.518;2023-07-20T02:13:34;99147.00;;;17.60
10058;BMP180;5068;51.286;7.518;2023-07-20T02:15:08;99146.00;;;17.60
10058;BMP180;5068;51.286;7.518;2023-07-20T02:16:41;99144.00;;;17.60
10058;BMP180;5068;51.286;7.518;2023-07-20T02:18:15;99132.00;;;17.60
10058;BMP180;5068;51.286;7.518;2023-07-20T02:19:52;99144.00;;;17.60
10058;BMP180;5068;51.286;7.518;2023-07-20T02:21:26;99151.00;;;17.60
10058;BMP180;5068;51.286;7.518;2023-07-20T02:22:59;99148.00;;;17.60
10058;BMP180;5068;51.286;7.518;2023-07-20T02:24:32;99144.00;;;17.60
10058;BMP180;5068;51.286;7.518;2023-07-20T02:26:05;99150.00;;;17.60
10058;BMP180;5068;51.286;7.518;2023-07-20T02:27:39;99148.00;;;17.60
10058;BMP180;5068;51.286;7.518;2023-07-20T02:29:11;99154.00;;;17.60
10058;BMP180;5068;51.286;7.518;2023-07-20T02:30:44;99150.00;;;17.50
10058;BMP180;5068;51.286;7.518;2023-07-20T02:32:17;99142.00;;;17.60
10058;BMP180;5068;51.286;7.518;2023-07-20T02:33:51;99147.00;;;17.60
10058;BMP180;5068;51.286;7.518;2023-07-20T02:35:23;99145.00;;;17.60
10058;BMP180;5068;51.286;7.518;2023-07-20T02:36:57;99154.00;;;17.60
10058;BMP180;5068;51.286;7.518;2023-07-20T02:38:31;99152.00;;;17.60
10058;BMP180;5068;51.286;7.518;2023-07-20T02:40:05;99150.00;;;17.60
10058;BMP180;5068;51.286;7.518;2023-07-20T02:41:39;99152.00;;;17.60
10058;BMP180;5068;51.286;7.518;2023-07-20T02:43:13;99147.00;;;17.60
10058;BMP180;5068;51.286;7.518;2023-07-20T02:44:46;99136.00;;;17.50
10058;BMP180;5068;51.286;7.518;2023-07-20T02:46:18;99147.00;;;17.50
10058;BMP180;5068;51.286;7.518;2023-07-20T02:47:52;99145.00;;;17.50
10058;BMP180;5068;51.286;7.518;2023-07-20T02:49:26;99147.00;;;17.50
10058;BMP180;5068;51.286;7.518;2023-07-20T02:50:59;99145.00;;;17.50
10058;BMP180;5068;51.286;7.518;2023-07-20T02:52:32;99144.00;;;17.50
10058;BMP180;5068;51.286;7.518;2023-07-20T02:54:05;99146.00;;;17.50
10058;BMP180;5068;51.286;7.518;2023-07-20T02:55:38;99148.00;;;17.50
10058;BMP180;5068;51.286;7.518;2023-07-20T02:57:11;99149.00;;;17.50
10058;BMP180;5068;51.286;7.518;2023-07-20T02:58:44;99150.00;;;17.50
10058;BMP180;5068;51.286;7.518;2023-07-20T03:00:18;99147.00;;;17.50
10058;BMP180;5068;51.286;7.518;2023-07-20T03:01:55;99148.00;;;17.50
10058;BMP180;5068;51.286;7.518;2023-07-20T03:03:27;99149.00;;;17.50
10058;BMP180;5068;51.286;7.518;2023-07-20T03:05:02;99149.00;;;17.50
10058;BMP180;5068;51.286;7.518;2023-07-20T03:06:38;99148.00;;;17.50
10058;BMP180;5068;51.286;7.518;2023-07-20T03:08:11;99149.00;;;17.50
10058;BMP180;5068;51.286;7.518;2023-07-20T03:09:45;99157.00;;;17.50
10058;BMP180;5068;51.286;7.518;2023-07-20T03:11:18;99158.00;;;17.50
10058;BMP180;5068;51.286;7.518;2023-07-20T03:12:52;99165.00;;;17.50
10058;BMP180;5068;51.286;7.518;2023-07-20T03:14:25;99158.00;;;17.50
10058;BMP180;5068;51.286;7.518;2023-07-20T03:15:58;99154.00;;;17.50
10058;BMP180;5068;51.286;7.518;2023-07-20T03:17:32;99161.00;;;17.50
10058;BMP180;5068;51.286;7.518;2023-07-20T03:19:04;99160.00;;;17.50
10058;BMP180;5068;51.286;7.518;2023-07-20T03:20:39;99152.00;;;17.50
10058;BMP180;5068;51.286;7.518;2023-07-20T03:22:12;99162.00;;;17.50
10058;BMP180;5068;51.286;7.518;2023-07-20T03:23:44;99162.00;;;17.50
10058;BMP180;5068;51.286;7.518;2023-07-20T03:25:18;99162.00;;;17.50
10058;BMP180;5068;51.286;7.518;2023-07-20T03:26:51;99163.00;;;17.50
10058;BMP180;5068;51.286;7.518;2023-07-20T03:28:24;99160.00;;;17.50
10058;BMP180;5068;51.286;7.518;2023-07-20T03:29:57;99169.00;;;17.50
10058;BMP180;5068;51.286;7.518;2023-07-20T03:31:30;99163.00;;;17.50
10058;BMP180;5068;51.286;7.518;2023-07-20T03:33:03;99160.00;;;17.50
10058;BMP180;5068;51.286;7.518;2023-07-20T03:34:36;99164.00;;;17.50
10058;BMP180;5068;51.286;7.518;2023-07-20T03:36:10;99173.00;;;17.50
10058;BMP180;5068;51.286;7.518;2023-07-20T03:37:44;99161.00;;;17.50
10058;BMP180;5068;51.286;7.518;2023-07-20T03:39:16;99168.00;;;17.50
10058;BMP180;5068;51.286;7.518;2023-07-20T03:40:50;99159.00;;;17.40
10058;BMP180;5068;51.286;7.518;2023-07-20T03:42:23;99155.00;;;17.40
10058;BMP180;5068;51.286;7.518;2023-07-20T03:43:57;99162.00;;;17.50
10058;BMP180;5068;51.286;7.518;2023-07-20T03:45:30;99158.00;;;17.50
10058;BMP180;5068;51.286;7.518;2023-07-20T03:47:03;99151.00;;;17.50
10058;BMP180;5068;51.286;7.518;2023-07-20T03:48:37;99158.00;;;17.50
10058;BMP180;5068;51.286;7.518;2023-07-20T03:50:10;99158.00;;;17.50
10058;BMP180;5068;51.286;7.518;2023-07-20T03:51:44;99158.00;;;17.50
10058;BMP180;5068;51.286;7.518;2023-07-20T03:53:17;99156.00;;;17.50
10058;BMP180;5068;51.286;7.518;2023-07-20T03:54:50;99152.00;;;17.60
10058;BMP180;5068;51.286;7.518;2023-07-20T03:56:24;99155.00;;;17.60
10058;BMP180;5068;51.286;7.518;2023-07-20T03:57:56;99155.00;;;17.60
10058;BMP180;5068;51.286;7.518;2023-07-20T03:59:29;99158.00;;;17.60
10058;BMP180;5068;51.286;7.518;2023-07-20T04:01:03;99157.00;;;17.60
10058;BMP180;5068;51.286;7.518;2023-07-20T04:02:35;99164.00;;;17.60
10058;BMP180;5068;51.286;7.518;2023-07-20T04:04:08;99165.00;;;17.70
10058;BMP180;5068;51.286;7.518;2023-07-20T04:05:41;99166.00;;;17.70
10058;BMP180;5068;51.286;7.518;2023-07-20T04:07:16;99164.00;;;17.70
10058;BMP180;5068;51.286;7.518;2023-07-20T04:08:48;99168.00;;;17.70
10058;BMP180;5068;51.286;7.518;2023-07-20T04:10:22;99171.00;;;17.70
10058;BMP180;5068;51.286;7.518;2023-07-20T04:11:57;99166.00;;;17.70
10058;BMP180;5068;51.286;7.518;2023-07-20T04:13:30;99162.00;;;17.70
10058;BMP180;5068;51.286;7.518;2023-07-20T04:15:07;99169.00;;;17.70
10058;BMP180;5068;51.286;7.518;2023-07-20T04:16:40;99167.00;;;17.70
10058;BMP180;5068;51.286;7.518;2023-07-20T04:18:13;99170.00;;;17.80
10058;BMP180;5068;51.286;7.518;2023-07-20T04:19:45;99168.00;;;17.80
10058;BMP180;5068;51.286;7.518;2023-07-20T04:21:19;99171.00;;;17.80
10058;BMP180;5068;51.286;7.518;2023-07-20T04:22:53;99167.00;;;17.80
10058;BMP180;5068;51.286;7.518;2023-07-20T04:24:26;99172.00;;;17.80
10058;BMP180;5068;51.286;7.518;2023-07-20T04:25:59;99170.00;;;17.80
10058;BMP180;5068;51.286;7.518;2023-07-20T04:27:32;99179.00;;;17.80
10058;BMP180;5068;51.286;7.518;2023-07-20T04:29:05;99177.00;;;17.90
10058;BMP180;5068;51.286;7.518;2023-07-20T04:30:42;99177.00;;;17.90
10058;BMP180;5068;51.286;7.518;2023-07-20T04:32:15;99171.00;;;17.90
10058;BMP180;5068;51.286;7.518;2023-07-20T04:33:48;99184.00;;;17.90
10058;BMP180;5068;51.286;7.518;2023-07-20T04:35:47;99183.00;;;17.90
10058;BMP180;5068;51.286;7.518;2023-07-20T04:37:24;99178.00;;;18.00
10058;BMP180;5068;51.286;7.518;2023-07-20T04:38:58;99188.00;;;18.00
10058;BMP180;5068;51.286;7.518;2023-07-20T04:40:37;99191.00;;;18.00
10058;BMP180;5068;51.286;7.518;2023-07-20T04:42:11;99183.00;;;18.00
10058;BMP180;5068;51.286;7.518;2023-07-20T04:43:44;99181.00;;;18.00
10058;BMP180;5068;51.286;7.518;2023-07-20T04:45:19;99179.00;;;18.10
10058;BMP180;5068;51.286;7.518;2023-07-20T04:46:55;99179.00;;;18.10
10058;BMP180;5068;51.286;7.518;2023-07-20T04:48:27;99183.00;;;18.10
10058;BMP180;5068;51.286;7.518;2023-07-20T04:50:01;99181.00;;;18.10
10058;BMP180;5068;51.286;7.518;2023-07-20T04:51:35;99183.00;;;18.20
10058;BMP180;5068;51.286;7.518;2023-07-20T04:53:09;99181.00;;;18.20
10058;BMP180;5068;51.286;7.518;2023-07-20T04:54:44;99184.00;;;18.20
10058;BMP180;5068;51.286;7.518;2023-07-20T04:56:18;99187.00;;;18.20
10058;BMP180;5068;51.286;7.518;2023-07-20T04:57:51;99185.00;;;18.20
10058;BMP180;5068;51.286;7.518;2023-07-20T04:59:24;99181.00;;;18.20
10058;BMP180;5068;51.286;7.518;2023-07-20T05:00:58;99185.00;;;18.30
10058;BMP180;5068;51.286;7.518;2023-07-20T05:02:30;99180.00;;;18.30
10058;BMP180;5068;51.286;7.518;2023-07-20T05:04:04;99179.00;;;18.30
10058;BMP180;5068;51.286;7.518;2023-07-20T05:05:40;99179.00;;;18.40
10058;BMP180;5068;51.286;7.518;2023-07-20T05:07:12;99174.00;;;18.40
10058;BMP180;5068;51.286;7.518;2023-07-20T05:08:46;99170.00;;;18.40
10058;BMP180;5068;51.286;7.518;2023-07-20T05:10:20;99174.00;;;18.40
10058;BMP180;5068;51.286;7.518;2023-07-20T05:11:53;99172.00;;;18.40
10058;BMP180;5068;51.286;7.518;2023-07-20T05:13:25;99166.00;;;18.40
10058;BMP180;5068;51.286;7.518;2023-07-20T05:14:58;99174.00;;;18.40
10058;BMP180;5068;51.286;7.518;2023-07-20T05:16:31;99166.00;;;18.40
10058;BMP180;5068;51.286;7.518;2023-07-20T05:18:08;99172.00;;;18.40
10058;BMP180;5068;51.286;7.518;2023-07-20T05:19:40;99172.00;;;18.50
10058;BMP180;5068;51.286;7.518;2023-07-20T05:21:16;99165.00;;;18.50
10058;BMP180;5068;51.286;7.518;2023-07-20T05:22:48;99176.00;;;18.50
10058;BMP180;5068;51.286;7.518;2023-07-20T05:24:21;99168.00;;;18.50
10058;BMP180;5068;51.286;7.518;2023-07-20T05:25:59;99168.00;;;18.50
10058;BMP180;5068;51.286;7.518;2023-07-20T05:27:32;99174.00;;;18.50
10058;BMP180;5068;51.286;7.518;2023-07-20T05:29:04;99172.00;;;18.50
10058;BMP180;5068;51.286;7.518;2023-07-20T05:30:38;99173.00;;;18.60
10058;BMP180;5068;51.286;7.518;2023-07-20T05:32:10;99176.00;;;18.60
10058;BMP180;5068;51.286;7.518;2023-07-20T05:33:43;99187.00;;;18.60
10058;BMP180;5068;51.286;7.518;2023-07-20T05:35:16;99192.00;;;18.70
10058;BMP180;5068;51.286;7.518;2023-07-20T05:36:49;99176.00;;;18.70
10058;BMP180;5068;51.286;7.518;2023-07-20T05:38:22;99178.00;;;18.70
10058;BMP180;5068;51.286;7.518;2023-07-20T05:39:57;99183.00;;;18.80
10058;BMP180;5068;51.286;7.518;2023-07-20T05:41:31;99183.00;;;18.80
10058;BMP180;5068;51.286;7.518;2023-07-20T05:43:03;99193.00;;;18.80
10058;BMP180;5068;51.286;7.518;2023-07-20T05:44:37;99195.00;;;18.90
10058;BMP180;5068;51.286;7.518;2023-07-20T05:46:12;99194.00;;;18.90
10058;BMP180;5068;51.286;7.518;2023-07-20T05:47:46;99201.00;;;18.90
10058;BMP180;5068;51.286;7.518;2023-07-20T05:49:20;99193.00;;;18.90
10058;BMP180;5068;51.286;7.518;2023-07-20T05:50:52;99198.00;;;18.90
10058;BMP180;5068;51.286;7.518;2023-07-20T05:52:25;99193.00;;;19.00
10058;BMP180;5068;51.286;7.518;2023-07-20T05:53:58;99204.00;;;19.00
10058;BMP180;5068;51.286;7.518;2023-07-20T05:55:31;99201.00;;;19.00
10058;BMP180;5068;51.286;7.518;2023-07-20T05:57:05;99204.00;;;19.00
10058;BMP180;5068;51.286;7.518;2023-07-20T05:58:39;99201.00;;;19.00
10058;BMP180;5068;51.286;7.518;2023-07-20T06:00:12;99211.00;;;19.00
10058;BMP180;5068;51.286;7.518;2023-07-20T06:01:47;99212.00;;;19.00
10058;BMP180;5068;51.286;7.518;2023-07-20T06:03:22;99211.00;;;19.10
10058;BMP180;5068;51.286;7.518;2023-07-20T06:04:55;99203.00;;;19.10
10058;BMP180;5068;51.286;7.518;2023-07-20T06:06:27;99207.00;;;19.10
10058;BMP180;5068;51.286;7.518;2023-07-20T06:08:01;99210.00;;;19.10
10058;BMP180;5068;51.286;7.518;2023-07-20T06:09:33;99210.00;;;19.10
10058;BMP180;5068;51.286;7.518;2023-07-20T06:11:06;99209.00;;;19.20
10058;BMP180;5068;51.286;7.518;2023-07-20T06:12:41;99213.00;;;19.20
10058;BMP180;5068;51.286;7.518;2023-07-20T06:14:17;99216.00;;;19.20
10058;BMP180;5068;51.286;7.518;2023-07-20T06:15:50;99217.00;;;19.20
10058;BMP180;5068;51.286;7.518;2023-07-20T06:17:23;99214.00;;;19.30
10058;BMP180;5068;51.286;7.518;2023-07-20T06:18:55;99218.00;;;19.30
10058;BMP180;5068;51.286;7.518;2023-07-20T06:20:29;99221.00;;;19.30
10058;BMP180;5068;51.286;7.518;2023-07-20T06:22:01;99223.00;;;19.30
10058;BMP180;5068;51.286;7.518;2023-07-20T06:23:35;99227.00;;;19.40
10058;BMP180;5068;51.286;7.518;2023-07-20T06:25:08;99230.00;;;19.40
10058;BMP180;5068;51.286;7.518;2023-07-20T06:26:41;99223.00;;;19.50
10058;BMP180;5068;51.286;7.518;2023-07-20T06:28:15;99228.00;;;19.50
10058;BMP180;5068;51.286;7.518;2023-07-20T06:29:50;99229.00;;;19.50
10058;BMP180;5068;51.286;7.518;2023-07-20T06:31:23;99223.00;;;19.60
10058;BMP180;5068;51.286;7.518;2023-07-20T06:32:56;99235.00;;;19.60
10058;BMP180;5068;51.286;7.518;2023-07-20T06:34:29;99229.00;;;19.60
10058;BMP180;5068;51.286;7.518;2023-07-20T06:36:02;99228.00;;;19.60
10058;BMP180;5068;51.286;7.518;2023-07-20T06:37:36;99230.00;;;19.70
10058;BMP180;5068;51.286;7.518;2023-07-20T06:39:08;99231.00;;;19.70
10058;BMP180;5068;51.286;7.518;2023-07-20T06:40:47;99232.00;;;19.70
10058;BMP180;5068;51.286;7.518;2023-07-20T06:42:21;99231.00;;;19.80
10058;BMP180;5068;51.286;7.518;2023-07-20T06:43:56;99225.00;;;19.80
10058;BMP180;5068;51.286;7.518;2023-07-20T06:45:30;99229.00;;;19.90
10058;BMP180;5068;51.286;7.518;2023-07-20T06:47:04;99220.00;;;19.90
10058;BMP180;5068;51.286;7.518;2023-07-20T06:48:37;99222.00;;;19.90
10058;BMP180;5068;51.286;7.518;2023-07-20T06:50:12;99220.00;;;19.90
10058;BMP180;5068;51.286;7.518;2023-07-20T06:51:49;99222.00;;;19.90
10058;BMP180;5068;51.286;7.518;2023-07-20T06:53:21;99225.00;;;20.00
10058;BMP180;5068;51.286;7.518;2023-07-20T06:54:54;99224.00;;;20.00
10058;BMP180;5068;51.286;7.518;2023-07-20T06:56:27;99216.00;;;20.00
10058;BMP180;5068;51.286;7.518;2023-07-20T06:58:02;99223.00;;;20.10
10058;BMP180;5068;51.286;7.518;2023-07-20T06:59:41;99229.00;;;20.10
10058;BMP180;5068;51.286;7.518;2023-07-20T07:01:14;99227.00;;;20.10
10058;BMP180;5068;51.286;7.518;2023-07-20T07:02:47;99227.00;;;20.10
10058;BMP180;5068;51.286;7.518;2023-07-20T07:04:22;99240.00;;;20.10
10058;BMP180;5068;51.286;7.518;2023-07-20T07:05:55;99241.00;;;20.10
10058;BMP180;5068;51.286;7.518;2023-07-20T07:07:29;99244.00;;;20.10
10058;BMP180;5068;51.286;7.518;2023-07-20T07:09:01;99239.00;;;20.10
10058;BMP180;5068;51.286;7.518;2023-07-20T07:10:36;99236.00;;;20.10
10058;BMP180;5068;51.286;7.518;2023-07-20T07:12:09;99239.00;;;20.10
10058;BMP180;5068;51.286;7.518;2023-07-20T07:13:42;99250.00;;;20.10
10058;BMP180;5068;51.286;7.518;2023-07-20T07:15:15;99246.00;;;20.10
10058;BMP180;5068;51.286;7.518;2023-07-20T07:16:49;99244.00;;;20.10
10058;BMP180;5068;51.286;7.518;2023-07-20T07:18:23;99242.00;;;20.10
10058;BMP180;5068;51.286;7.518;2023-07-20T07:19:56;99251.00;;;20.10
10058;BMP180;5068;51.286;7.518;2023-07-20T07:21:30;99250.00;;;20.20
10058;BMP180;5068;51.286;7.518;2023-07-20T07:23:03;99253.00;;;20.20
10058;BMP180;5068;51.286;7.518;2023-07-20T07:24:35;99250.00;;;20.20
10058;BMP180;5068;51.286;7.518;2023-07-20T07:26:09;99246.00;;;20.30
10058;BMP180;5068;51.286;7.518;2023-07-20T07:27:43;99250.00;;;20.30
10058;BMP180;5068;51.286;7.518;2023-07-20T07:29:16;99254.00;;;20.30
10058;BMP180;5068;51.286;7.518;2023-07-20T07:30:50;99255.00;;;20.30
10058;BMP180;5068;51.286;7.518;2023-07-20T07:32:24;99254.00;;;20.40
10058;BMP180;5068;51.286;7.518;2023-07-20T07:33:57;99254.00;;;20.40
10058;BMP180;5068;51.286;7.518;2023-07-20T07:35:30;99255.00;;;20.40
10058;BMP180;5068;51.286;7.518;2023-07-20T07:37:04;99254.00;;;20.40
10058;BMP180;5068;51.286;7.518;2023-07-20T07:38:37;99252.00;;;20.50
10058;BMP180;5068;51.286;7.518;2023-07-20T07:40:31;99256.00;;;20.50
10058;BMP180;5068;51.286;7.518;2023-07-20T07:42:05;99254.00;;;20.50
10058;BMP180;5068;51.286;7.518;2023-07-20T07:43:38;99259.00;;;20.50
10058;BMP180;5068;51.286;7.518;2023-07-20T07:45:11;99258.00;;;20.50
10058;BMP180;5068;51.286;7.518;2023-07-20T07:46:47;99261.00;;;20.50
10058;BMP180;5068;51.286;7.518;2023-07-20T07:48:19;99257.00;;;20.50
10058;BMP180;5068;51.286;7.518;2023-07-20T07:49:54;99264.00;;;20.50
10058;BMP180;5068;51.286;7.518;2023-07-20T07:51:26;99261.00;;;20.50
10058;BMP180;5068;51.286;7.518;2023-07-20T07:53:00;99261.00;;;20.50
10058;BMP180;5068;51.286;7.518;2023-07-20T07:54:32;99266.00;;;20.50
10058;BMP180;5068;51.286;7.518;2023-07-20T07:56:07;99270.00;;;20.60
10058;BMP180;5068;51.286;7.518;2023-07-20T07:57:40;99280.00;;;20.60
10058;BMP180;5068;51.286;7.518;2023-07-20T07:59:13;99283.00;;;20.70
10058;BMP180;5068;51.286;7.518;2023-07-20T08:00:45;99277.00;;;20.70
10058;BMP180;5068;51.286;7.518;2023-07-20T08:02:21;99276.00;;;20.70
10058;BMP180;5068;51.286;7.518;2023-07-20T08:03:54;99266.00;;;20.80
10058;BMP180;5068;51.286;7.518;2023-07-20T08:05:28;99278.00;;;20.80
10058;BMP180;5068;51.286;7.518;2023-07-20T08:07:00;99273.00;;;20.90
10058;BMP180;5068;51.286;7.518;2023-07-20T08:08:33;99274.00;;;20.90
10058;BMP180;5068;51.286;7.518;2023-07-20T08:10:07;99274.00;;;20.90
10058;BMP180;5068;51.286;7.518;2023-07-20T08:11:40;99274.00;;;20.90
10058;BMP180;5068;51.286;7.518;2023-07-20T08:13:14;99276.00;;;20.90
10058;BMP180;5068;51.286;7.518;2023-07-20T08:14:46;99280.00;;;20.90
10058;BMP180;5068;51.286;7.518;2023-07-20T08:16:19;99279.00;;;21.00
10058;BMP180;5068;51.286;7.518;2023-07-20T08:17:53;99290.00;;;21.00
10058;BMP180;5068;51.286;7.518;2023-07-20T08:19:27;99278.00;;;21.10
10058;BMP180;5068;51.286;7.518;2023-07-20T08:20:59;99277.00;;;21.10
10058;BMP180;5068;51.286;7.518;2023-07-20T08:22:33;99288.00;;;21.20
10058;BMP180;5068;51.286;7.518;2023-07-20T08:24:06;99295.00;;;21.20
10058;BMP180;5068;51.286;7.518;2023-07-20T08:25:39;99288.00;;;21.30
10058;BMP180;5068;51.286;7.518;2023-07-20T08:27:15;99285.00;;;21.30
10058;BMP180;5068;51.286;7.518;2023-07-20T08:28:48;99291.00;;;21.30
10058;BMP180;5068;51.286;7.518;2023-07-20T08:30:22;99297.00;;;21.40
10058;BMP180;5068;51.286;7.518;2023-07-20T08:31:56;99288.00;;;21.50
10058;BMP180;5068;51.286;7.518;2023-07-20T08:33:30;99292.00;;;21.60
10058;BMP180;5068;51.286;7.518;2023-07-20T08:35:06;99290.00;;;21.60
10058;BMP180;5068;51.286;7.518;2023-07-20T08:36:39;99296.00;;;21.70
10058;BMP180;5068;51.286;7.518;2023-07-20T08:38:12;99294.00;;;21.70
10058;BMP180;5068;51.286;7.518;2023-07-20T08:39:44;99295.00;;;21.80
10058;BMP180;5068;51.286;7.518;2023-07-20T08:41:19;99288.00;;;21.80
10058;BMP180;5068;51.286;7.518;2023-07-20T08:42:54;99295.00;;;21.80
10058;BMP180;5068;51.286;7.518;2023-07-20T08:44:28;99294.00;;;21.80
10058;BMP180;5068;51.286;7.518;2023-07-20T08:46:00;99304.00;;;21.90
10058;BMP180;5068;51.286;7.518;2023-07-20T08:47:35;99300.00;;;21.90
10058;BMP180;5068;51.286;7.518;2023-07-20T08:49:11;99299.00;;;22.00
10058;BMP180;5068;51.286;7.518;2023-07-20T08:50:45;99312.00;;;22.00
10058;BMP180;5068;51.286;7.518;2023-07-20T08:52:20;99320.00;;;22.10
10058;BMP180;5068;51.286;7.518;2023-07-20T08:53:53;99308.00;;;22.10
10058;BMP180;5068;51.286;7.518;2023-07-20T08:55:26;99310.00;;;22.10
10058;BMP180;5068;51.286;7.518;2023-07-20T08:57:03;99307.00;;;22.10
10058;BMP180;5068;51.286;7.518;2023-07-20T08:58:36;99297.00;;;22.00
10058;BMP180;5068;51.286;7.518;2023-07-20T09:00:13;99307.00;;;21.90
10058;BMP180;5068;51.286;7.518;2023-07-20T09:01:47;99299.00;;;21.90
10058;BMP180;5068;51.286;7.518;2023-07-20T09:03:21;99308.00;;;21.90
10058;BMP180;5068;51.286;7.518;2023-07-20T09:04:55;99307.00;;;21.80
10058;BMP180;5068;51.286;7.518;2023-07-20T09:06:28;99309.00;;;21.80
10058;BMP180;5068;51.286;7.518;2023-07-20T09:08:02;99291.00;;;21.70
10058;BMP180;5068;51.286;7.518;2023-07-20T09:09:40;99307.00;;;21.80
10058;BMP180;5068;51.286;7.518;2023-07-20T09:11:14;99305.00;;;21.70